Time;durP1;ratioP1;P1;durP2;ratioP2;P2;SDS_P1;SDS_P2;PMS_P1;PMS_P2;Temp;Humidity;BMP_temperature;BMP_pressure;BME280_temperature;BME280_humidity;BME280_pressure;Samples;Min_cycle;Max_cycle;Signal;HPM_P1;HPM_P2
2022/08/22 00:00:14;;;;;;;2.20;2.00;;;16.10;99.90;;;;;;500190;237;28788;-66
2022/08/22 00:02:14;;;;;;;2.00;1.90;;;16.00;99.90;;;;;;500181;237;28792;-68
2022/08/22 00:04:15;;;;;;;2.10;1.90;;;16.00;99.90;;;;;;500208;237;29227;-67
2022/08/22 00:06:17;;;;;;;2.13;2.00;;;16.00;99.90;;;;;;500152;237;29272;-67
2022/08/22 00:08:18;;;;;;;3.17;2.33;;;15.80;99.90;;;;;;495971;238;29387;-66
2022/08/22 00:10:19;;;;;;;2.57;1.87;;;15.80;99.90;;;;;;497003;239;29225;-67
2022/08/22 00:12:21;;;;;;;2.00;1.90;;;15.90;99.90;;;;;;485778;241;28823;-68
2022/08/22 00:14:22;;;;;;;2.40;2.20;;;15.80;99.90;;;;;;496663;239;28738;-67
2022/08/22 00:16:23;;;;;;;2.50;2.30;;;15.80;99.90;;;;;;485710;241;28930;-66
2022/08/22 00:18:25;;;;;;;2.60;2.40;;;15.80;99.90;;;;;;496750;239;28697;-67
2022/08/22 00:20:25;;;;;;;2.60;2.40;;;15.90;99.90;;;;;;485658;245;28857;-67
2022/08/22 00:22:27;;;;;;;2.53;2.30;;;15.90;99.90;;;;;;496729;239;28796;-67
2022/08/22 00:24:28;;;;;;;2.80;2.40;;;15.80;99.90;;;;;;485737;241;28793;-67
2022/08/22 00:26:30;;;;;;;4.03;2.60;;;15.90;99.90;;;;;;496716;239;28838;-67
2022/08/22 00:28:30;;;;;;;2.80;2.37;;;15.90;99.90;;;;;;485761;242;28856;-70
2022/08/22 00:30:32;;;;;;;3.80;2.37;;;16.00;99.90;;;;;;496757;239;29285;-66
2022/08/22 00:32:33;;;;;;;2.80;2.60;;;16.00;99.90;;;;;;485796;241;29335;-68
2022/08/22 00:34:34;;;;;;;2.50;2.30;;;16.10;99.90;;;;;;496661;239;29363;-66
2022/08/22 00:36:36;;;;;;;2.70;2.50;;;16.20;99.90;;;;;;485676;241;28869;-67
2022/08/22 00:38:37;;;;;;;3.23;2.37;;;16.20;99.90;;;;;;496746;236;28758;-71
2022/08/22 00:40:38;;;;;;;2.37;2.17;;;16.20;99.90;;;;;;483619;244;28808;-66
2022/08/22 00:42:39;;;;;;;2.33;2.13;;;16.20;99.90;;;;;;497106;239;28893;-67
2022/08/22 00:44:41;;;;;;;2.67;2.20;;;16.10;99.90;;;;;;486159;241;28718;-67
2022/08/22 00:46:42;;;;;;;3.00;2.63;;;16.10;99.90;;;;;;497119;239;28770;-67
2022/08/22 00:48:43;;;;;;;2.57;2.20;;;16.00;99.90;;;;;;486266;241;28748;-71
2022/08/22 00:50:44;;;;;;;2.43;2.07;;;16.00;99.90;;;;;;497221;239;28756;-67
2022/08/22 00:52:45;;;;;;;2.53;2.13;;;16.00;99.90;;;;;;486230;241;28814;-67
2022/08/22 00:54:47;;;;;;;3.00;1.97;;;15.90;99.90;;;;;;497214;239;29191;-67
2022/08/22 00:56:48;;;;;;;2.27;2.07;;;15.90;99.90;;;;;;486174;241;29209;-67
2022/08/22 00:58:49;;;;;;;1.97;1.87;;;15.80;99.90;;;;;;497221;239;29364;-70
2022/08/22 01:00:50;;;;;;;2.50;2.07;;;15.80;99.90;;;;;;486191;241;28714;-66
2022/08/22 01:02:52;;;;;;;2.20;2.10;;;15.80;99.90;;;;;;497237;239;28865;-68
2022/08/22 01:04:53;;;;;;;2.13;1.70;;;15.70;99.90;;;;;;486206;241;28813;-67
2022/08/22 01:06:54;;;;;;;2.73;2.00;;;15.70;99.90;;;;;;497146;239;28789;-67
2022/08/22 01:08:55;;;;;;;2.53;2.30;;;15.60;99.90;;;;;;485960;241;28717;-67
2022/08/22 01:10:57;;;;;;;2.40;2.20;;;15.70;99.90;;;;;;496961;239;28777;-67
2022/08/22 01:12:58;;;;;;;2.50;2.17;;;15.60;99.90;;;;;;485746;241;28903;-67
2022/08/22 01:14:59;;;;;;;2.37;2.17;;;15.60;99.90;;;;;;496746;239;28756;-67
2022/08/22 01:17:00;;;;;;;1.90;1.80;;;15.60;99.90;;;;;;485703;241;28819;-67
2022/08/22 01:19:02;;;;;;;2.50;2.30;;;15.50;99.90;;;;;;496758;239;29167;-68
2022/08/22 01:21:03;;;;;;;2.50;2.30;;;15.50;99.90;;;;;;485787;241;29414;-66
2022/08/22 01:23:04;;;;;;;2.50;2.10;;;15.50;99.90;;;;;;496749;239;29376;-68
2022/08/22 01:25:18;;;;;;;2.17;1.97;;;15.50;99.90;;;;;;485779;241;29265;-68
2022/08/22 01:27:19;;;;;;;1.90;1.80;;;15.50;99.90;;;;;;496682;239;28664;-67
2022/08/22 01:29:20;;;;;;;2.50;2.30;;;15.50;99.90;;;;;;485738;241;29482;-69
2022/08/22 01:31:21;;;;;;;2.53;2.37;;;15.40;99.90;;;;;;496768;239;29229;-66
2022/08/22 01:33:23;;;;;;;2.50;2.30;;;15.40;99.90;;;;;;485770;241;29272;-67
2022/08/22 01:35:24;;;;;;;2.40;2.20;;;15.50;99.90;;;;;;496743;239;28692;-66
2022/08/22 01:37:25;;;;;;;2.37;2.00;;;15.40;99.90;;;;;;485683;243;28783;-68
2022/08/22 01:39:26;;;;;;;2.53;2.33;;;15.40;99.90;;;;;;496815;236;28778;-70
2022/08/22 01:41:28;;;;;;;2.73;2.20;;;15.40;99.90;;;;;;485733;241;28791;-67
2022/08/22 01:43:29;;;;;;;2.97;2.00;;;15.40;99.90;;;;;;496995;239;28784;-67
2022/08/22 01:45:30;;;;;;;2.30;2.17;;;15.30;99.90;;;;;;486238;241;28316;-66
2022/08/22 01:47:31;;;;;;;2.87;2.27;;;15.20;99.90;;;;;;497155;239;28799;-66
2022/08/22 01:49:33;;;;;;;3.07;2.43;;;15.20;99.90;;;;;;486196;241;28768;-69
2022/08/22 01:51:34;;;;;;;2.20;2.00;;;15.10;99.90;;;;;;497088;239;28897;-66
2022/08/22 01:53:35;;;;;;;2.20;2.10;;;15.10;99.90;;;;;;496118;239;29296;-67
2022/08/22 01:55:36;;;;;;;2.20;2.10;;;15.10;99.90;;;;;;496182;240;29200;-66
2022/08/22 01:57:38;;;;;;;2.33;2.20;;;15.10;99.90;;;;;;496074;240;29152;-66
2022/08/22 01:59:39;;;;;;;1.93;1.83;;;15.10;99.90;;;;;;496103;240;29280;-69
2022/08/22 02:01:40;;;;;;;2.50;2.30;;;15.10;99.90;;;;;;496064;240;28652;-66
2022/08/22 02:03:41;;;;;;;2.57;2.37;;;15.00;99.90;;;;;;496000;240;28712;-68
2022/08/22 02:05:43;;;;;;;2.20;2.10;;;15.00;99.90;;;;;;495972;236;28810;-66
2022/08/22 02:07:44;;;;;;;2.33;2.13;;;15.00;99.90;;;;;;495767;236;28797;-68
2022/08/22 02:09:45;;;;;;;2.47;2.27;;;15.00;99.90;;;;;;495859;240;28526;-72
2022/08/22 02:11:46;;;;;;;2.67;2.47;;;15.00;99.90;;;;;;495720;240;28693;-67
2022/08/22 02:13:48;;;;;;;3.00;2.23;;;14.90;99.90;;;;;;495686;240;28312;-69
2022/08/22 02:15:49;;;;;;;2.93;2.70;;;14.90;99.90;;;;;;495757;240;28257;-67
2022/08/22 02:17:51;;;;;;;2.33;2.20;;;14.90;99.90;;;;;;495642;239;29167;-67
2022/08/22 02:19:51;;;;;;;2.77;2.57;;;14.80;99.90;;;;;;495647;240;29189;-71
2022/08/22 02:21:54;;;;;;;2.20;2.10;;;14.70;99.90;;;;;;495719;240;29212;-68
2022/08/22 02:23:54;;;;;;;2.60;2.20;;;14.70;99.90;;;;;;495627;240;29164;-68
2022/08/22 02:25:56;;;;;;;2.70;2.10;;;14.70;99.90;;;;;;495643;240;28402;-69
2022/08/22 02:27:57;;;;;;;3.03;2.40;;;14.70;99.90;;;;;;495629;240;28741;-68
2022/08/22 02:29:59;;;;;;;2.00;1.90;;;14.70;99.90;;;;;;495706;240;28415;-68
2022/08/22 02:32:00;;;;;;;2.57;2.37;;;14.70;99.90;;;;;;495718;240;28705;-71
2022/08/22 02:34:01;;;;;;;2.30;2.10;;;14.70;99.90;;;;;;495711;240;28669;-67
2022/08/22 02:36:03;;;;;;;2.43;2.20;;;14.70;99.90;;;;;;495691;236;28396;-68
2022/08/22 02:38:04;;;;;;;2.13;2.03;;;14.70;99.90;;;;;;496002;236;28502;-67
2022/08/22 02:40:05;;;;;;;4.77;2.30;;;14.60;99.90;;;;;;495898;240;28768;-67
2022/08/22 02:42:06;;;;;;;3.67;2.60;;;14.70;99.90;;;;;;496064;240;28402;-70
2022/08/22 02:44:07;;;;;;;2.33;2.23;;;14.60;99.90;;;;;;496177;240;29154;-67
2022/08/22 02:46:08;;;;;;;2.33;2.13;;;14.60;99.90;;;;;;496091;240;29186;-67
2022/08/22 02:48:10;;;;;;;2.20;2.00;;;14.50;99.90;;;;;;496179;240;28839;-67
2022/08/22 02:50:11;;;;;;;2.40;2.20;;;14.40;99.90;;;;;;496107;240;28302;-68
2022/08/22 02:52:12;;;;;;;2.40;2.13;;;14.30;99.90;;;;;;496192;240;28494;-69
2022/08/22 02:54:13;;;;;;;2.90;2.60;;;14.30;99.90;;;;;;496203;240;28199;-65
2022/08/22 02:56:15;;;;;;;2.83;2.37;;;14.30;99.90;;;;;;496054;240;28496;-67
2022/08/22 02:58:16;;;;;;;2.53;2.33;;;14.30;99.90;;;;;;496137;240;28163;-67
2022/08/22 03:00:17;;;;;;;2.80;2.40;;;14.20;99.90;;;;;;496165;240;28280;-68
2022/08/22 03:02:18;;;;;;;2.50;2.30;;;14.10;99.90;;;;;;496160;240;28301;-70
2022/08/22 03:04:20;;;;;;;2.30;2.20;;;14.20;99.90;;;;;;496213;239;28174;-67
2022/08/22 03:06:21;;;;;;;3.83;2.10;;;14.20;99.90;;;;;;496026;236;28702;-67
2022/08/22 03:08:22;;;;;;;3.87;2.10;;;14.30;99.90;;;;;;495750;236;29494;-67
2022/08/22 03:10:23;;;;;;;2.80;2.60;;;14.30;99.90;;;;;;495907;236;28831;-68
2022/08/22 03:12:25;;;;;;;2.60;2.40;;;14.30;99.90;;;;;;495820;236;28969;-68
2022/08/22 03:14:26;;;;;;;2.73;2.00;;;14.30;99.90;;;;;;496090;236;29027;-67
2022/08/22 03:16:27;;;;;;;3.13;2.30;;;14.30;99.90;;;;;;495948;240;28486;-69
2022/08/22 03:18:28;;;;;;;2.00;1.90;;;14.20;99.90;;;;;;495856;236;28376;-66
2022/08/22 03:20:30;;;;;;;2.20;2.10;;;14.20;99.90;;;;;;495924;236;28349;-67
2022/08/22 03:22:31;;;;;;;3.33;2.23;;;14.30;99.90;;;;;;495697;236;28278;-68
2022/08/22 03:24:32;;;;;;;2.53;2.10;;;14.20;99.90;;;;;;495948;236;28352;-68
2022/08/22 03:26:35;;;;;;;2.33;2.23;;;14.20;99.90;;;;;;495701;240;28115;-67
2022/08/22 03:28:36;;;;;;;2.40;2.30;;;14.20;99.90;;;;;;495632;239;28127;-67
2022/08/22 03:30:36;;;;;;;2.30;2.10;;;14.30;99.90;;;;;;495687;240;28153;-66
2022/08/22 03:32:37;;;;;;;2.47;2.27;;;14.30;99.90;;;;;;495697;240;28083;-70
2022/08/22 03:34:38;;;;;;;3.50;2.10;;;14.30;99.90;;;;;;495728;240;28604;-66
2022/08/22 03:36:40;;;;;;;2.23;2.13;;;14.30;99.90;;;;;;495708;240;28897;-68
2022/08/22 03:38:42;;;;;;;1.97;1.87;;;14.10;99.90;;;;;;495868;236;28655;-67
2022/08/22 03:40:42;;;;;;;2.70;2.40;;;14.20;99.90;;;;;;495744;236;28642;-67
2022/08/22 03:42:43;;;;;;;4.43;2.40;;;14.20;99.90;;;;;;495871;236;28427;-69
2022/08/22 03:44:45;;;;;;;2.20;2.10;;;14.20;99.90;;;;;;495920;240;28391;-67
2022/08/22 03:46:46;;;;;;;2.57;2.37;;;14.20;99.90;;;;;;496002;236;28400;-70
2022/08/22 03:48:48;;;;;;;2.60;2.40;;;;;;;;;;495862;240;28561;-67
2022/08/22 03:50:50;;;;;;;2.23;2.13;;;14.00;99.90;;;;;;495910;236;27012;-69
2022/08/22 03:53:06;;;;;;;2.10;2.00;;;14.00;99.90;;;;;;495923;240;28251;-67
2022/08/22 03:55:07;;;;;;;2.10;2.00;;;14.00;99.90;;;;;;495880;236;28412;-67
2022/08/22 03:57:09;;;;;;;2.30;2.10;;;14.00;99.90;;;;;;495718;236;28248;-67
2022/08/22 03:59:10;;;;;;;2.33;2.10;;;13.90;99.90;;;;;;495761;240;28372;-70
2022/08/22 04:01:12;;;;;;;2.30;2.10;;;14.00;99.90;;;;;;495716;236;28139;-67
2022/08/22 04:03:12;;;;;;;2.10;2.00;;;14.00;99.90;;;;;;495936;236;28262;-67
2022/08/22 04:05:14;;;;;;;2.30;2.20;;;13.90;99.90;;;;;;495908;240;28200;-67
2022/08/22 04:07:15;;;;;;;2.33;2.20;;;13.90;99.90;;;;;;496131;236;28179;-67
2022/08/22 04:09:16;;;;;;;2.77;2.33;;;13.80;99.90;;;;;;495818;240;28224;-68
2022/08/22 04:11:18;;;;;;;2.60;2.50;;;13.60;99.90;;;;;;495806;236;28366;-66
2022/08/22 04:13:19;;;;;;;2.47;2.30;;;13.50;99.90;;;;;;495853;236;28283;-67
2022/08/22 04:15:20;;;;;;;3.30;2.57;;;13.40;99.90;;;;;;496086;239;28207;-70
2022/08/22 04:17:21;;;;;;;2.27;2.17;;;13.40;99.90;;;;;;495786;236;28090;-67
2022/08/22 04:19:24;;;;;;;2.50;2.30;;;;;;;;;;495892;236;28240;-67
2022/08/22 04:21:26;;;;;;;2.43;2.23;;;13.30;99.90;;;;;;496085;239;26499;-67
2022/08/22 04:23:26;;;;;;;5.83;3.03;;;13.40;99.90;;;;;;495823;236;28052;-72
2022/08/22 04:25:28;;;;;;;2.30;2.10;;;13.40;99.90;;;;;;495884;236;28264;-66
2022/08/22 04:27:30;;;;;;;2.30;2.17;;;;;;;;;;495721;240;28069;-66
2022/08/22 04:29:31;;;;;;;2.43;2.23;;;13.40;99.90;;;;;;495918;236;26953;-68
2022/08/22 04:31:33;;;;;;;3.40;2.20;;;13.40;99.90;;;;;;495761;236;28193;-72
2022/08/22 04:33:34;;;;;;;2.63;2.43;;;13.30;99.90;;;;;;496050;240;28264;-67
2022/08/22 04:35:35;;;;;;;2.07;1.97;;;13.40;99.90;;;;;;496155;240;28592;-67
2022/08/22 04:37:36;;;;;;;2.17;2.00;;;13.30;99.90;;;;;;496070;236;28035;-67
2022/08/22 04:39:37;;;;;;;2.63;2.10;;;13.40;99.90;;;;;;495835;236;28276;-67
2022/08/22 04:41:39;;;;;;;1.90;1.80;;;13.50;99.90;;;;;;495911;236;28092;-68
2022/08/22 04:43:40;;;;;;;4.00;2.50;;;13.60;99.90;;;;;;495915;240;28391;-68
2022/08/22 04:45:41;;;;;;;2.20;1.97;;;13.60;99.90;;;;;;495714;236;28049;-67
2022/08/22 04:47:42;;;;;;;3.13;2.20;;;13.60;99.90;;;;;;495774;240;28260;-67
2022/08/22 04:49:44;;;;;;;2.10;2.00;;;13.70;99.90;;;;;;495765;236;28543;-67
2022/08/22 04:51:45;;;;;;;2.50;2.30;;;13.70;99.90;;;;;;495742;240;28551;-71
2022/08/22 04:53:46;;;;;;;2.20;2.10;;;13.70;99.90;;;;;;495839;236;28763;-67
2022/08/22 04:55:48;;;;;;;2.20;2.10;;;13.70;99.90;;;;;;495849;240;28310;-68
2022/08/22 04:57:49;;;;;;;2.43;2.30;;;13.60;99.90;;;;;;493470;236;28253;-67
2022/08/22 04:59:50;;;;;;;2.33;2.23;;;13.60;99.90;;;;;;489434;240;28155;-67
2022/08/22 05:01:52;;;;;;;2.20;2.10;;;13.60;99.90;;;;;;495296;236;28116;-69
2022/08/22 05:03:53;;;;;;;2.50;2.30;;;13.60;99.90;;;;;;496073;240;28073;-67
2022/08/22 05:05:54;;;;;;;3.40;2.43;;;13.60;99.90;;;;;;496110;240;28246;-68
2022/08/22 05:07:55;;;;;;;2.33;2.13;;;13.60;99.90;;;;;;496116;240;28162;-67
2022/08/22 05:09:56;;;;;;;2.80;2.40;;;13.70;99.90;;;;;;496147;240;28200;-68
2022/08/22 05:11:58;;;;;;;2.70;2.50;;;13.60;99.90;;;;;;496091;240;28194;-71
2022/08/22 05:13:59;;;;;;;2.83;2.63;;;13.70;99.90;;;;;;496168;240;28389;-68
2022/08/22 05:16:03;;;;;;;2.60;2.40;;;13.70;99.90;;;;;;496143;240;28667;-68
2022/08/22 05:18:01;;;;;;;2.47;2.27;;;13.70;99.90;;;;;;495904;239;29194;-67
2022/08/22 05:20:03;;;;;;;2.40;2.30;;;13.70;99.90;;;;;;496137;240;28598;-68
2022/08/22 05:22:04;;;;;;;2.57;2.40;;;13.60;99.90;;;;;;496176;240;27975;-69
2022/08/22 05:24:05;;;;;;;2.57;2.40;;;13.60;99.90;;;;;;496115;240;28139;-65
2022/08/22 05:26:06;;;;;;;2.43;2.27;;;13.60;99.90;;;;;;496074;239;28342;-69
2022/08/22 05:28:09;;;;;;;2.50;2.30;;;13.60;99.90;;;;;;496140;240;28146;-68
2022/08/22 05:30:10;;;;;;;2.73;2.53;;;13.60;99.90;;;;;;496060;240;28036;-68
2022/08/22 05:32:10;;;;;;;2.43;2.33;;;13.50;99.90;;;;;;496110;239;28268;-68
2022/08/22 05:34:11;;;;;;;2.83;2.63;;;13.50;99.90;;;;;;496148;240;28360;-68
2022/08/22 05:36:14;;;;;;;2.30;2.20;;;;;;;;;;496091;240;28331;-67
2022/08/22 05:38:15;;;;;;;2.70;2.40;;;13.60;99.90;;;;;;496175;239;26561;-67
2022/08/22 05:40:17;;;;;;;3.10;2.57;;;13.70;99.90;;;;;;496055;240;28155;-70
2022/08/22 05:42:18;;;;;;;2.67;2.50;;;13.70;99.90;;;;;;495936;239;28052;-67
2022/08/22 05:44:19;;;;;;;2.90;2.70;;;13.90;99.90;;;;;;494299;239;28735;-67
2022/08/22 05:46:20;;;;;;;2.93;2.73;;;13.90;99.90;;;;;;494194;239;28816;-68
2022/08/22 05:48:22;;;;;;;2.80;2.60;;;13.90;99.90;;;;;;484135;245;28830;-67
2022/08/22 05:50:23;;;;;;;2.57;2.47;;;13.90;99.90;;;;;;488551;241;28851;-69
2022/08/22 05:52:24;;;;;;;2.67;2.50;;;14.00;99.90;;;;;;485323;244;28247;-67
2022/08/22 05:54:25;;;;;;;2.97;2.67;;;14.00;99.90;;;;;;484331;245;28269;-67
2022/08/22 05:56:26;;;;;;;2.70;2.60;;;14.10;99.90;;;;;;484296;245;28264;-70
2022/08/22 05:58:28;;;;;;;3.20;2.90;;;14.10;99.90;;;;;;484518;245;28292;-67
2022/08/22 06:00:31;;;;;;;3.13;2.83;;;14.00;99.90;;;;;;485583;245;28409;-68
2022/08/22 06:02:30;;;;;;;3.00;2.80;;;14.00;99.90;;;;;;485461;245;28201;-67
2022/08/22 06:04:31;;;;;;;3.20;3.00;;;14.10;99.90;;;;;;485595;245;28353;-68
2022/08/22 06:06:33;;;;;;;2.80;2.60;;;14.20;99.90;;;;;;485570;245;28818;-67
2022/08/22 06:08:34;;;;;;;3.40;2.67;;;14.30;99.90;;;;;;485523;241;28932;-68
2022/08/22 06:10:35;;;;;;;3.00;2.70;;;14.40;99.90;;;;;;485618;245;29353;-68
2022/08/22 06:12:37;;;;;;;2.60;2.50;;;14.50;99.90;;;;;;485551;245;29142;-67
2022/08/22 06:14:38;;;;;;;2.83;2.63;;;14.50;99.90;;;;;;485516;245;28518;-67
2022/08/22 06:16:39;;;;;;;2.47;2.37;;;14.60;99.90;;;;;;485570;245;28883;-69
2022/08/22 06:18:40;;;;;;;2.60;2.50;;;14.60;99.90;;;;;;485576;245;28514;-67
2022/08/22 06:20:42;;;;;;;2.73;2.53;;;14.70;99.90;;;;;;485438;245;28657;-69
2022/08/22 06:22:44;;;;;;;2.80;2.60;;;14.70;99.90;;;;;;485591;245;28976;-67
2022/08/22 06:24:44;;;;;;;3.30;2.50;;;14.70;99.90;;;;;;485630;245;29020;-67
2022/08/22 06:26:45;;;;;;;2.87;2.70;;;14.80;99.90;;;;;;485631;245;28576;-67
2022/08/22 06:28:47;;;;;;;2.37;2.27;;;14.90;99.90;;;;;;485688;245;28849;-68
2022/08/22 06:30:48;;;;;;;2.70;2.60;;;14.90;99.90;;;;;;485659;245;28900;-71
2022/08/22 06:32:49;;;;;;;2.80;2.70;;;15.00;99.90;;;;;;485676;245;28945;-69
2022/08/22 06:34:50;;;;;;;2.50;2.40;;;15.10;99.90;;;;;;485709;245;29060;-67
2022/08/22 06:36:52;;;;;;;2.60;2.40;;;15.20;99.90;;;;;;485551;245;29327;-68
2022/08/22 06:38:53;;;;;;;2.57;2.47;;;15.30;99.90;;;;;;485748;245;29301;-67
2022/08/22 06:40:54;;;;;;;2.57;2.37;;;15.40;99.90;;;;;;485702;245;28938;-67
2022/08/22 06:42:55;;;;;;;2.37;2.17;;;15.40;99.90;;;;;;485707;245;28954;-71
2022/08/22 06:44:57;;;;;;;2.70;2.50;;;15.50;99.90;;;;;;485713;245;28922;-67
2022/08/22 06:46:58;;;;;;;2.50;2.40;;;15.60;99.90;;;;;;485585;245;28869;-69
2022/08/22 06:48:59;;;;;;;3.10;2.80;;;15.70;99.90;;;;;;485677;245;28831;-68
2022/08/22 06:51:00;;;;;;;2.20;2.10;;;15.80;99.90;;;;;;485517;240;28840;-68
2022/08/22 06:53:02;;;;;;;2.70;2.33;;;15.80;99.90;;;;;;496158;240;28755;-70
2022/08/22 06:55:03;;;;;;;2.57;2.43;;;15.90;99.90;;;;;;496976;236;28661;-67
2022/08/22 06:57:05;;;;;;;3.10;2.30;;;16.00;99.90;;;;;;501429;236;28866;-68
2022/08/22 06:59:06;;;;;;;2.80;2.60;;;16.10;99.90;;;;;;501616;236;29050;-67
2022/08/22 07:01:07;;;;;;;2.60;2.20;;;16.10;99.90;;;;;;501593;236;28664;-68
2022/08/22 07:03:08;;;;;;;2.90;2.70;;;16.20;99.90;;;;;;500499;237;29145;-68
2022/08/22 07:05:10;;;;;;;2.57;2.40;;;16.30;99.90;;;;;;487435;244;29365;-69
2022/08/22 07:07:12;;;;;;;2.50;2.40;;;16.40;99.90;;;;;;497371;238;28633;-68
2022/08/22 07:09:15;;;;;;;2.70;2.60;;;16.50;99.90;;;;;;494357;237;28853;-68
2022/08/22 07:11:15;;;;;;;2.50;2.40;;;16.50;99.90;;;;;;491487;240;28826;-68
2022/08/22 07:13:16;;;;;;;3.47;3.17;;;16.60;99.90;;;;;;492275;241;29105;-74
2022/08/22 07:15:17;;;;;;;9.33;4.03;;;16.70;99.90;;;;;;490451;241;28828;-68
2022/08/22 07:17:20;;;;;;;8.63;4.40;;;16.80;99.90;;;;;;490357;242;29366;-70
2022/08/22 07:19:20;;;;;;;8.13;4.63;;;16.90;99.90;;;;;;490384;241;28895;-67
2022/08/22 07:21:21;;;;;;;7.80;4.33;;;17.00;99.90;;;;;;490431;241;28940;-69
2022/08/22 07:23:23;;;;;;;6.47;4.50;;;17.10;99.90;;;;;;490443;241;28873;-70
2022/08/22 07:25:24;;;;;;;7.40;4.90;;;17.20;99.90;;;;;;490410;241;29337;-67
2022/08/22 07:27:25;;;;;;;7.53;4.63;;;17.30;99.90;;;;;;490398;241;29393;-68
2022/08/22 07:29:27;;;;;;;6.77;4.60;;;17.40;99.90;;;;;;491078;241;29174;-71
2022/08/22 07:31:28;;;;;;;15.13;5.60;;;17.50;99.90;;;;;;495367;240;29292;-68
2022/08/22 07:33:29;;;;;;;9.53;5.50;;;17.60;99.90;;;;;;495499;240;28856;-68
2022/08/22 07:35:30;;;;;;;8.27;5.30;;;17.60;99.90;;;;;;495460;240;29282;-67
2022/08/22 07:37:31;;;;;;;11.17;5.37;;;17.70;99.90;;;;;;495322;240;29193;-69
2022/08/22 07:39:33;;;;;;;17.70;6.40;;;17.80;99.90;;;;;;492840;240;29339;-71
2022/08/22 07:41:34;;;;;;;7.23;5.37;;;17.90;99.90;;;;;;485057;245;29088;-68
2022/08/22 07:43:35;;;;;;;9.77;5.57;;;18.10;99.90;;;;;;493540;240;28948;-68
2022/08/22 07:45:37;;;;;;;10.30;5.73;;;18.20;99.90;;;;;;494706;240;28786;-68
2022/08/22 07:47:38;;;;;;;9.40;5.93;;;18.30;99.90;;;;;;495064;240;28847;-68
2022/08/22 07:49:39;;;;;;;12.73;5.90;;;18.40;99.90;;;;;;492997;239;28787;-74
2022/08/22 07:51:40;;;;;;;7.33;4.93;;;18.50;99.90;;;;;;493652;240;28810;-71
2022/08/22 07:53:42;;;;;;;7.10;4.80;;;18.70;99.90;;;;;;492657;241;28921;-70
2022/08/22 07:55:43;;;;;;;6.90;4.50;;;18.80;99.90;;;;;;494443;240;28795;-68
2022/08/22 07:57:44;;;;;;;5.43;4.07;;;18.80;99.90;;;;;;491312;240;28758;-68
2022/08/22 07:59:46;;;;;;;6.93;4.20;;;18.90;99.90;;;;;;489700;243;28920;-71
2022/08/22 08:01:47;;;;;;;5.47;4.00;;;19.10;99.90;;;;;;489843;243;28698;-68
2022/08/22 08:03:48;;;;;;;3.33;3.00;;;19.20;99.90;;;;;;489830;243;28811;-68
2022/08/22 08:05:49;;;;;;;3.57;3.20;;;19.60;99.90;;;;;;489866;243;28788;-68
2022/08/22 08:07:51;;;;;;;4.10;3.27;;;19.60;99.90;;;;;;489728;243;28871;-68
2022/08/22 08:09:52;;;;;;;4.13;3.13;;;19.70;99.90;;;;;;489878;243;29196;-70
2022/08/22 08:11:53;;;;;;;4.30;2.93;;;19.60;99.90;;;;;;489831;243;29401;-67
2022/08/22 08:13:54;;;;;;;4.03;2.83;;;19.70;99.90;;;;;;489860;243;29384;-68
2022/08/22 08:15:55;;;;;;;2.83;2.50;;;19.80;99.90;;;;;;488769;243;28851;-68
2022/08/22 08:17:57;;;;;;;5.13;2.80;;;19.80;99.90;;;;;;482765;243;28813;-69
2022/08/22 08:19:58;;;;;;;4.80;3.90;;;19.90;99.90;;;;;;481767;245;28845;-69
2022/08/22 08:21:59;;;;;;;2.90;2.70;;;20.40;99.90;;;;;;477679;245;29266;-68
2022/08/22 08:24:01;;;;;;;3.20;2.73;;;20.50;99.90;;;;;;477716;246;28800;-68
2022/08/22 08:26:02;;;;;;;3.50;3.17;;;20.80;99.90;;;;;;478815;244;28836;-73
2022/08/22 08:30:23;;;;;;;3.87;3.40;;;21.40;99.90;;;;;;465863;254;29368;-69
2022/08/22 08:32:24;;;;;;;4.67;2.90;;;21.60;99.90;;;;;;484568;243;29398;-73
2022/08/22 08:34:25;;;;;;;3.43;3.10;;;21.30;99.90;;;;;;478947;245;29246;-71
2022/08/22 08:36:27;;;;;;;4.60;3.53;;;21.10;99.90;;;;;;476904;245;29464;-69
2022/08/22 08:38:28;;;;;;;5.13;3.43;;;21.00;99.90;;;;;;467197;253;28893;-68
2022/08/22 08:40:29;;;;;;;4.87;3.27;;;21.30;99.90;;;;;;476073;250;28857;-68
2022/08/22 08:42:30;;;;;;;6.53;3.73;;;21.60;99.90;;;;;;476053;249;28990;-74
2022/08/22 08:44:32;;;;;;;5.70;3.40;;;21.40;99.90;;;;;;472031;249;28810;-70
2022/08/22 08:46:33;;;;;;;3.63;3.13;;;21.50;99.90;;;;;;481866;247;28980;-71
2022/08/22 08:48:34;;;;;;;5.47;3.60;;;21.90;99.90;;;;;;476064;249;29484;-72
2022/08/22 08:50:36;;;;;;;4.23;3.10;;;22.30;99.90;;;;;;481912;247;28898;-70
2022/08/22 08:52:37;;;;;;;3.80;3.50;;;22.70;99.90;;;;;;476123;249;28990;-71
2022/08/22 08:54:38;;;;;;;6.93;3.93;;;22.70;99.90;;;;;;481910;247;29897;-71
2022/08/22 08:56:40;;;;;;;10.17;4.30;;;22.80;99.90;;;;;;476122;250;29344;-70
2022/08/22 08:58:42;;;;;;;3.83;3.43;;;22.90;99.90;;;;;;487022;242;29221;-70
2022/08/22 09:00:42;;;;;;;6.67;4.07;;;22.40;99.90;;;;;;488634;241;28703;-70
2022/08/22 09:02:43;;;;;;;3.77;3.47;;;22.40;99.90;;;;;;488806;241;28718;-70
2022/08/22 09:04:45;;;;;;;4.27;3.77;;;22.90;99.90;;;;;;488805;241;29159;-72
2022/08/22 09:06:46;;;;;;;4.03;3.43;;;23.20;99.90;;;;;;488874;241;29249;-70
2022/08/22 09:08:47;;;;;;;3.50;3.20;;;23.10;99.90;;;;;;488951;241;29178;-71
2022/08/22 09:10:48;;;;;;;4.93;3.13;;;23.20;99.90;;;;;;488901;236;29173;-70
2022/08/22 09:12:50;;;;;;;4.33;2.97;;;23.30;99.90;;;;;;488966;241;28674;-70
2022/08/22 09:14:52;;;;;;;4.30;3.80;;;23.00;99.90;;;;;;489005;241;28782;-72
2022/08/22 09:16:52;;;;;;;4.30;2.73;;;23.30;99.90;;;;;;488945;241;28688;-70
2022/08/22 09:18:53;;;;;;;3.20;2.90;;;23.40;99.90;;;;;;488835;241;28828;-73
2022/08/22 09:20:55;;;;;;;3.13;2.73;;;23.30;99.90;;;;;;488907;241;28707;-70
2022/08/22 09:22:56;;;;;;;3.20;2.83;;;23.30;99.90;;;;;;488919;243;28746;-71
2022/08/22 09:24:57;;;;;;;3.20;2.93;;;23.20;99.90;;;;;;488763;243;28743;-73
2022/08/22 09:27:00;;;;;;;4.17;3.13;;;23.00;99.90;;;;;;488679;241;28874;-70
2022/08/22 09:29:00;;;;;;;4.77;3.30;;;22.90;99.90;;;;;;486318;243;36443;-70
2022/08/22 09:31:01;;;;;;;3.67;2.77;;;22.90;99.90;;;;;;488850;241;29207;-74
2022/08/22 09:33:02;;;;;;;4.10;3.10;;;22.70;99.90;;;;;;488979;241;29337;-70
2022/08/22 09:35:03;;;;;;;3.23;2.90;;;22.80;99.90;;;;;;488929;241;29293;-71
2022/08/22 09:37:06;;;;;;;3.10;2.90;;;22.80;99.90;;;;;;488941;241;28688;-70
2022/08/22 09:39:06;;;;;;;3.40;3.10;;;23.00;99.90;;;;;;488971;241;28733;-70
2022/08/22 09:41:07;;;;;;;3.53;2.70;;;22.70;99.90;;;;;;489008;241;28715;-75
2022/08/22 09:43:08;;;;;;;3.00;2.63;;;22.60;99.90;;;;;;489000;241;28832;-70
2022/08/22 09:45:10;;;;;;;3.60;2.90;;;22.70;99.90;;;;;;488984;241;28823;-72
2022/08/22 09:47:11;;;;;;;3.00;2.50;;;22.70;99.90;;;;;;488931;241;28707;-71
2022/08/22 09:49:12;;;;;;;5.63;2.70;;;22.70;99.90;;;;;;489001;241;28738;-70
2022/08/22 09:51:14;;;;;;;2.60;2.40;;;22.70;99.90;;;;;;489008;241;28747;-72
2022/08/22 09:53:15;;;;;;;4.50;3.07;;;22.90;99.90;;;;;;489022;241;28682;-70
2022/08/22 09:55:16;;;;;;;5.90;3.37;;;23.30;99.90;;;;;;489048;241;29313;-71
2022/08/22 09:57:17;;;;;;;3.40;2.77;;;23.50;99.90;;;;;;488942;241;29227;-70
2022/08/22 09:59:19;;;;;;;5.70;3.60;;;23.60;99.90;;;;;;489029;241;29277;-70
2022/08/22 10:01:20;;;;;;;2.70;2.50;;;23.60;99.90;;;;;;489032;241;28786;-72
2022/08/22 10:03:21;;;;;;;4.43;2.83;;;23.40;99.90;;;;;;489008;241;28758;-69
2022/08/22 10:05:22;;;;;;;3.87;2.47;;;23.30;99.90;;;;;;489045;241;28722;-71
2022/08/22 10:07:24;;;;;;;2.67;2.47;;;23.40;99.90;;;;;;488955;241;28786;-70
2022/08/22 10:09:25;;;;;;;2.80;2.60;;;23.30;99.90;;;;;;489016;241;28717;-69
2022/08/22 10:11:26;;;;;;;3.40;3.07;;;23.30;99.90;;;;;;489047;241;28843;-72
2022/08/22 10:13:27;;;;;;;3.20;2.90;;;23.30;99.90;;;;;;489078;241;28782;-70
2022/08/22 10:15:29;;;;;;;2.93;2.50;;;23.30;99.90;;;;;;489078;241;28730;-71
2022/08/22 10:17:31;;;;;;;2.70;2.50;;;23.30;99.90;;;;;;489000;241;28774;-70
2022/08/22 10:19:31;;;;;;;2.53;2.30;;;23.30;99.90;;;;;;488994;241;29198;-69
2022/08/22 10:21:33;;;;;;;2.73;2.53;;;23.20;99.90;;;;;;489081;241;29449;-74
2022/08/22 10:23:34;;;;;;;3.53;3.10;;;23.20;99.90;;;;;;489030;241;29146;-69
2022/08/22 10:25:35;;;;;;;2.63;2.17;;;23.20;99.90;;;;;;489037;241;29298;-71
2022/08/22 10:27:36;;;;;;;3.87;2.80;;;23.30;99.90;;;;;;488965;241;28705;-70
2022/08/22 10:29:37;;;;;;;2.63;2.43;;;23.40;99.90;;;;;;489027;241;28785;-70
2022/08/22 10:31:39;;;;;;;3.33;2.97;;;23.50;99.90;;;;;;489039;241;28809;-75
2022/08/22 10:33:40;;;;;;;2.90;2.70;;;23.50;99.90;;;;;;489039;241;28691;-70